createdAt,value
2022-07-29T00:00:06.439Z,16.50
2022-07-29T00:02:39.693Z,16.60
2022-07-29T00:05:15.117Z,16.60
2022-07-29T00:10:21.409Z,16.38
2022-07-29T00:12:54.471Z,16.60
2022-07-29T00:15:28.877Z,16.95
2022-07-29T00:18:03.519Z,16.77
2022-07-29T00:20:36.805Z,16.05
2022-07-29T00:23:09.996Z,18.30
2022-07-29T00:25:47.072Z,15.15
2022-07-29T00:28:20.366Z,17.23
2022-07-29T00:30:53.529Z,17.35
2022-07-29T00:33:29.051Z,17.70
2022-07-29T00:36:04.574Z,17.75
2022-07-29T00:38:37.711Z,18.10
2022-07-29T00:41:10.813Z,18.30
2022-07-29T00:43:44.516Z,16.90
2022-07-29T00:46:19.849Z,18.63
2022-07-29T00:51:28.076Z,18.23
2022-07-29T00:54:01.134Z,16.77
2022-07-29T00:56:34.973Z,17.23
2022-07-29T00:59:08.120Z,17.63
2022-07-29T01:01:41.414Z,17.20
2022-07-29T01:04:14.985Z,17.40
2022-07-29T01:06:51.517Z,16.75
2022-07-29T01:09:42.764Z,16.30
2022-07-29T01:12:26.398Z,16.92
2022-07-29T01:15:00.808Z,17.20
2022-07-29T01:17:55.586Z,16.67
2022-07-29T01:21:14.128Z,17.52
2022-07-29T01:24:57.294Z,16.27
2022-07-29T01:28:05.569Z,17.27
2022-07-29T01:30:43.709Z,17.90
2022-07-29T01:33:39.210Z,16.63
2022-07-29T01:36:18.092Z,17.17
2022-07-29T01:38:54.655Z,17.90
2022-07-29T01:41:31.472Z,16.08
2022-07-29T01:44:09.257Z,17.65
2022-07-29T01:46:46.210Z,18.45
2022-07-29T01:49:22.538Z,18.40
2022-07-29T01:51:58.787Z,18.27
2022-07-29T01:54:46.750Z,19.00
2022-07-29T01:57:22.428Z,17.80
2022-07-29T01:59:56.648Z,18.35
2022-07-29T02:02:32.094Z,19.55
2022-07-29T02:07:42.373Z,18.73
2022-07-29T02:10:26.094Z,18.42
2022-07-29T02:13:02.070Z,19.67
2022-07-29T02:15:36.818Z,18.77
2022-07-29T02:18:11.789Z,18.17
2022-07-29T02:20:47.765Z,18.48
2022-07-29T02:23:22.817Z,19.58
2022-07-29T02:25:58.392Z,19.23
2022-07-29T02:28:32.457Z,18.88
2022-07-29T02:31:08.230Z,18.70
2022-07-29T02:33:42.677Z,19.52
2022-07-29T02:36:17.640Z,20.13
2022-07-29T02:38:52.804Z,21.75
2022-07-29T02:41:30.677Z,21.45
2022-07-29T02:44:07.659Z,19.83
2022-07-29T02:47:04.537Z,20.23
2022-07-29T02:49:45.987Z,21.60
2022-07-29T02:52:43.655Z,19.50
2022-07-29T02:55:36.209Z,19.42
2022-07-29T02:58:15.561Z,20.45
2022-07-29T03:00:53.170Z,19.30
2022-07-29T03:06:03.755Z,19.10
2022-07-29T03:08:37.360Z,20.05
2022-07-29T03:11:11.200Z,20.55
2022-07-29T03:13:44.811Z,24.00
2022-07-29T03:16:21.192Z,22.58
2022-07-29T03:18:54.720Z,22.00
2022-07-29T03:21:27.958Z,22.35
2022-07-29T03:24:00.967Z,20.00
2022-07-29T03:26:34.478Z,18.60
2022-07-29T03:29:07.748Z,19.65
2022-07-29T03:31:43.708Z,21.25
2022-07-29T03:34:17.123Z,19.48
2022-07-29T03:36:50.655Z,20.70
2022-07-29T03:39:25.253Z,20.88
2022-07-29T03:41:59.740Z,20.03
2022-07-29T03:44:33.455Z,20.33
2022-07-29T03:47:08.055Z,21.33
2022-07-29T03:49:42.646Z,20.33
2022-07-29T03:52:15.962Z,22.67
2022-07-29T03:54:49.321Z,20.58
2022-07-29T03:57:24.697Z,20.30
2022-07-29T04:02:31.608Z,18.88
2022-07-29T04:05:05.292Z,18.50
2022-07-29T04:07:38.694Z,15.25
2022-07-29T04:10:11.820Z,15.15
2022-07-29T04:12:45.158Z,13.02
2022-07-29T04:15:18.336Z,12.38
2022-07-29T04:17:51.518Z,13.55
2022-07-29T04:20:27.431Z,11.38
2022-07-29T04:23:00.629Z,10.98
2022-07-29T04:25:33.890Z,9.88
2022-07-29T04:28:07.403Z,10.40
2022-07-29T04:30:40.992Z,9.68
2022-07-29T04:33:14.356Z,9.68
2022-07-29T04:35:49.756Z,9.48
2022-07-29T04:38:25.668Z,9.27
2022-07-29T04:40:59.111Z,9.20
2022-07-29T04:43:36.877Z,9.88
2022-07-29T04:46:10.430Z,9.23
2022-07-29T04:48:43.923Z,9.98
2022-07-29T04:51:17.638Z,9.02
2022-07-29T04:53:50.856Z,10.00
2022-07-29T04:56:24.192Z,9.68
2022-07-29T04:58:57.564Z,10.23
2022-07-29T05:01:30.880Z,9.70
2022-07-29T05:04:03.966Z,10.02
2022-07-29T05:06:37.092Z,9.68
2022-07-29T05:09:10.117Z,9.55
2022-07-29T05:11:43.379Z,9.68
2022-07-29T05:14:16.747Z,9.95
2022-07-29T05:16:52.474Z,10.30
2022-07-29T05:21:58.385Z,12.75
2022-07-29T05:24:32.134Z,11.45
2022-07-29T05:27:05.965Z,12.15
2022-07-29T05:29:43.641Z,12.82
2022-07-29T05:32:18.470Z,12.65
2022-07-29T05:34:51.904Z,11.57
2022-07-29T05:37:25.282Z,11.18
2022-07-29T05:39:59.019Z,11.27
2022-07-29T05:42:32.464Z,10.70
2022-07-29T05:45:06.374Z,9.68
2022-07-29T05:47:39.716Z,10.02
2022-07-29T05:50:12.719Z,9.80
2022-07-29T05:52:45.835Z,10.23
2022-07-29T05:55:19.401Z,9.70
2022-07-29T05:57:53.977Z,9.43
2022-07-29T06:00:27.170Z,8.85
2022-07-29T06:03:03.260Z,9.52
2022-07-29T06:05:36.484Z,16.10
2022-07-29T06:08:09.791Z,15.02
2022-07-29T06:10:42.973Z,13.50
2022-07-29T06:13:17.352Z,13.63
2022-07-29T06:15:50.937Z,12.90
2022-07-29T06:18:25.472Z,14.23
2022-07-29T06:20:58.833Z,14.97
2022-07-29T06:23:32.030Z,14.82
2022-07-29T06:26:05.494Z,15.85
2022-07-29T06:28:38.845Z,15.63
2022-07-29T06:31:12.191Z,14.75
2022-07-29T06:33:45.333Z,14.75
2022-07-29T06:36:18.436Z,16.85
2022-07-29T06:38:52.543Z,15.70
2022-07-29T06:41:27.592Z,17.88
2022-07-29T06:44:00.913Z,19.83
2022-07-29T06:46:34.096Z,19.20
2022-07-29T06:49:08.082Z,19.33
2022-07-29T06:51:41.520Z,18.77
2022-07-29T06:54:15.271Z,20.67
2022-07-29T06:56:51.092Z,21.60
2022-07-29T06:59:33.536Z,20.38
2022-07-29T07:02:08.814Z,13.70
2022-07-29T07:04:42.325Z,12.85
2022-07-29T07:07:15.328Z,14.57
2022-07-29T07:09:50.944Z,14.45
2022-07-29T07:12:24.162Z,13.18
2022-07-29T07:14:57.405Z,12.32
2022-07-29T07:17:30.612Z,15.18
2022-07-29T07:20:03.887Z,13.65
2022-07-29T07:22:38.923Z,14.50
2022-07-29T07:27:46.388Z,11.93
2022-07-29T07:30:19.658Z,13.77
2022-07-29T07:32:53.038Z,12.70
2022-07-29T07:35:28.136Z,12.13
2022-07-29T07:38:01.430Z,13.57
2022-07-29T07:40:34.876Z,11.32
2022-07-29T07:43:08.768Z,11.63
2022-07-29T07:45:43.112Z,12.63
2022-07-29T07:48:16.330Z,10.40
2022-07-29T07:50:50.797Z,11.10
2022-07-29T07:53:24.431Z,11.80
2022-07-29T07:56:10.370Z,11.10
2022-07-29T07:58:44.379Z,11.48
2022-07-29T08:04:12.863Z,12.95
2022-07-29T08:06:46.454Z,10.40
2022-07-29T08:09:29.379Z,11.88
2022-07-29T08:12:07.241Z,10.77
2022-07-29T08:14:40.630Z,9.93
2022-07-29T08:17:13.838Z,10.85
2022-07-29T08:19:47.579Z,10.57
2022-07-29T08:22:21.119Z,9.60
2022-07-29T08:24:55.797Z,9.85
2022-07-29T08:27:47.560Z,8.68
2022-07-29T08:30:21.532Z,10.18
2022-07-29T08:32:55.637Z,8.63
2022-07-29T08:35:34.789Z,9.23
2022-07-29T08:38:08.795Z,8.48
2022-07-29T08:40:42.082Z,8.98
2022-07-29T08:43:17.759Z,9.02
2022-07-29T08:45:52.720Z,8.85
2022-07-29T08:48:26.519Z,7.80
2022-07-29T08:51:04.379Z,8.10
2022-07-29T08:53:39.650Z,8.15
2022-07-29T08:56:19.931Z,8.98
2022-07-29T09:08:16.256Z,9.23
2022-07-29T09:10:50.028Z,7.55
2022-07-29T09:13:24.049Z,7.95
2022-07-29T09:15:56.962Z,9.13
2022-07-29T09:18:41.421Z,10.13
2022-07-29T09:21:35.945Z,7.18
2022-07-29T09:24:11.065Z,8.98
2022-07-29T09:27:38.225Z,8.02
2022-07-29T09:35:28.116Z,9.35
2022-07-29T09:42:31.280Z,8.20
2022-07-29T09:46:10.310Z,9.88
2022-07-29T09:48:45.063Z,9.02
2022-07-29T09:51:28.424Z,8.02
2022-07-29T09:55:18.057Z,9.20
2022-07-29T09:57:51.433Z,8.48
2022-07-29T10:00:26.841Z,7.80
2022-07-29T10:03:02.940Z,10.52
2022-07-29T10:05:37.115Z,9.52
2022-07-29T10:08:11.057Z,9.10
2022-07-29T10:10:44.799Z,8.85
2022-07-29T10:13:17.989Z,7.93
2022-07-29T10:16:18.595Z,8.00
2022-07-29T10:23:16.866Z,8.88
2022-07-29T10:25:50.006Z,9.07
2022-07-29T10:28:23.854Z,12.57
2022-07-29T10:31:59.782Z,8.23
2022-07-29T10:34:58.118Z,13.10
2022-07-29T10:37:50.887Z,13.52
2022-07-29T10:40:57.295Z,11.60
2022-07-29T10:46:49.186Z,10.90
2022-07-29T10:49:57.436Z,10.88
2022-07-29T10:52:49.192Z,9.65
2022-07-29T10:55:49.982Z,8.98
2022-07-29T10:58:25.642Z,9.45
2022-07-29T11:00:59.252Z,11.32
2022-07-29T11:03:50.321Z,9.70
2022-07-29T11:07:09.598Z,8.68
2022-07-29T11:09:43.855Z,7.20
2022-07-29T11:13:22.649Z,7.47
2022-07-29T11:16:01.963Z,7.47
2022-07-29T11:19:26.308Z,8.32
2022-07-29T11:22:05.504Z,7.50
2022-07-29T11:24:50.275Z,7.03
2022-07-29T11:28:22.949Z,9.82
2022-07-29T11:31:00.150Z,7.07
2022-07-29T11:33:54.271Z,7.03
2022-07-29T11:36:30.001Z,6.68
2022-07-29T11:39:36.671Z,7.65
2022-07-29T11:42:32.147Z,5.72
2022-07-29T11:45:41.397Z,6.40
2022-07-29T11:52:03.237Z,5.95
2022-07-29T11:54:58.126Z,5.82
2022-07-29T12:00:41.740Z,5.03
2022-07-29T12:07:35.742Z,4.18
2022-07-29T12:10:19.973Z,4.05
2022-07-29T12:13:03.165Z,4.07
2022-07-29T12:15:46.031Z,4.88
2022-07-29T12:23:16.643Z,4.47
2022-07-29T12:25:54.318Z,4.05
2022-07-29T12:28:30.104Z,3.90
2022-07-29T12:31:08.278Z,4.07
2022-07-29T12:34:09.371Z,4.03
2022-07-29T12:36:46.422Z,4.20
2022-07-29T12:39:21.796Z,3.55
2022-07-29T12:42:04.802Z,4.13
2022-07-29T12:45:05.348Z,3.85
2022-07-29T12:47:54.628Z,4.30
2022-07-29T12:50:27.770Z,4.15
2022-07-29T12:53:15.178Z,3.60
2022-07-29T12:56:41.758Z,4.55
2022-07-29T12:59:22.738Z,4.18
2022-07-29T13:02:52.302Z,4.25
2022-07-29T13:21:41.984Z,4.65
2022-07-29T13:25:17.692Z,5.47
2022-07-29T13:27:55.847Z,6.28
2022-07-29T13:30:54.289Z,10.98
2022-07-29T13:33:27.713Z,10.32
2022-07-29T13:36:00.664Z,13.63
2022-07-29T13:38:33.683Z,13.80
2022-07-29T13:41:08.914Z,13.05
2022-07-29T13:43:42.141Z,6.72
2022-07-29T13:46:17.662Z,11.95
2022-07-29T13:48:53.940Z,10.30
2022-07-29T13:51:27.537Z,11.48
2022-07-29T13:54:05.002Z,11.82
2022-07-29T13:56:38.654Z,9.80
2022-07-29T13:59:12.053Z,8.82
2022-07-29T14:01:47.186Z,9.90
2022-07-29T14:04:20.785Z,10.65
2022-07-29T14:06:54.225Z,11.23
2022-07-29T14:09:27.739Z,10.98
2022-07-29T14:12:01.491Z,12.30
2022-07-29T14:14:37.113Z,11.98
2022-07-29T14:17:10.231Z,9.50
2022-07-29T14:19:44.527Z,5.55
2022-07-29T14:22:21.473Z,5.07
2022-07-29T14:24:59.424Z,5.05
2022-07-29T14:27:41.459Z,4.03
2022-07-29T14:30:15.832Z,5.00
2022-07-29T14:32:48.834Z,4.55
2022-07-29T14:35:21.840Z,5.05
2022-07-29T14:37:54.962Z,5.03
2022-07-29T14:40:28.802Z,5.47
2022-07-29T14:43:02.928Z,6.35
2022-07-29T14:45:36.119Z,6.05
2022-07-29T14:48:09.643Z,7.05
2022-07-29T14:50:43.614Z,7.47
2022-07-29T14:53:16.744Z,8.73
2022-07-29T14:55:50.824Z,8.63
2022-07-29T14:58:24.205Z,8.98
2022-07-29T15:00:58.026Z,9.23
2022-07-29T15:03:31.348Z,7.95
2022-07-29T15:06:06.985Z,7.70
2022-07-29T15:08:40.037Z,8.32
2022-07-29T15:11:13.059Z,6.53
2022-07-29T15:13:46.247Z,6.22
2022-07-29T15:16:19.759Z,5.30
2022-07-29T15:18:53.398Z,5.10
2022-07-29T15:21:27.238Z,5.22
2022-07-29T15:24:00.233Z,5.00
2022-07-29T15:26:33.934Z,4.90
2022-07-29T15:29:08.133Z,5.20
2022-07-29T15:31:42.150Z,4.35
2022-07-29T15:34:17.199Z,4.38
2022-07-29T15:36:53.480Z,4.45
2022-07-29T15:39:27.234Z,4.22
2022-07-29T15:42:01.799Z,4.40
2022-07-29T15:44:36.008Z,4.45
2022-07-29T15:47:09.429Z,4.70
2022-07-29T15:49:47.971Z,4.35
2022-07-29T15:52:25.066Z,4.25
2022-07-29T15:55:00.880Z,4.82
2022-07-29T15:57:33.848Z,4.38
2022-07-29T16:00:08.039Z,4.00
2022-07-29T16:05:18.449Z,4.47
2022-07-29T16:10:25.952Z,4.05
2022-07-29T16:12:59.032Z,4.65
2022-07-29T16:15:32.256Z,4.50
2022-07-29T16:18:10.614Z,4.72
2022-07-29T16:20:44.084Z,4.30
2022-07-29T16:23:16.996Z,4.28
2022-07-29T16:25:59.570Z,4.00
2022-07-29T16:28:34.191Z,4.10
2022-07-29T16:31:07.123Z,4.97
2022-07-29T16:33:54.385Z,6.22
2022-07-29T16:36:29.250Z,4.13
2022-07-29T16:39:05.577Z,5.18
2022-07-29T16:41:39.222Z,4.53
2022-07-29T16:44:12.197Z,4.10
2022-07-29T16:46:46.102Z,4.22
2022-07-29T16:49:21.646Z,4.57
2022-07-29T16:51:54.833Z,4.25
2022-07-29T16:54:30.854Z,3.88
2022-07-29T16:57:04.401Z,4.55
2022-07-29T16:59:43.404Z,4.35
2022-07-29T17:02:16.896Z,5.05
2022-07-29T17:04:50.104Z,4.97
2022-07-29T17:07:23.241Z,4.72
2022-07-29T17:10:00.622Z,4.43
2022-07-29T17:12:38.272Z,5.10
2022-07-29T17:15:13.366Z,4.72
2022-07-29T17:20:29.791Z,4.82
2022-07-29T17:23:02.814Z,5.35
2022-07-29T17:25:35.714Z,6.03
2022-07-29T17:28:08.676Z,5.70
2022-07-29T17:30:41.686Z,5.15
2022-07-29T17:33:14.490Z,4.90
2022-07-29T17:36:06.095Z,5.03
2022-07-29T17:38:39.429Z,5.25
2022-07-29T17:41:13.247Z,5.28
2022-07-29T17:43:46.144Z,5.53
2022-07-29T17:46:20.679Z,5.03
2022-07-29T17:48:58.072Z,5.32
2022-07-29T17:51:31.306Z,5.32
2022-07-29T17:54:04.285Z,5.43
2022-07-29T17:56:37.300Z,5.30
2022-07-29T17:59:10.909Z,5.20
2022-07-29T18:01:43.984Z,5.22
2022-07-29T18:04:20.650Z,5.28
2022-07-29T18:06:53.436Z,5.72
2022-07-29T18:09:26.497Z,6.13
2022-07-29T18:11:59.509Z,6.50
2022-07-29T18:14:36.260Z,7.05
2022-07-29T18:17:13.505Z,6.47
2022-07-29T18:22:20.186Z,5.95
2022-07-29T18:24:53.744Z,6.32
2022-07-29T18:27:27.552Z,6.32
2022-07-29T18:30:04.534Z,6.63
2022-07-29T18:32:38.061Z,6.03
2022-07-29T18:35:11.378Z,6.20
2022-07-29T18:38:02.014Z,6.47
2022-07-29T18:40:40.484Z,6.78
2022-07-29T18:43:17.231Z,6.63
2022-07-29T18:45:52.334Z,6.78
2022-07-29T18:48:25.612Z,7.55
2022-07-29T18:50:58.593Z,7.10
2022-07-29T18:53:31.625Z,7.45
2022-07-29T18:56:09.591Z,8.20
2022-07-29T18:58:42.803Z,7.47
2022-07-29T19:01:16.778Z,7.68
2022-07-29T19:03:50.112Z,6.78
2022-07-29T19:06:25.893Z,7.43
2022-07-29T19:08:59.400Z,7.93
2022-07-29T19:11:32.494Z,8.60
2022-07-29T19:14:11.931Z,7.47
2022-07-29T19:16:46.749Z,7.90
2022-07-29T19:19:20.011Z,8.18
2022-07-29T19:21:54.204Z,8.02
2022-07-29T19:24:29.535Z,8.73
2022-07-29T19:27:05.115Z,9.10
2022-07-29T19:29:40.466Z,7.97
2022-07-29T19:35:34.113Z,9.57
2022-07-29T19:38:10.396Z,9.93
2022-07-29T19:40:45.988Z,9.68
2022-07-29T19:43:50.586Z,10.65
2022-07-29T19:46:13.455Z,10.00
2022-07-29T19:48:50.618Z,9.80
2022-07-29T19:53:58.990Z,9.50
2022-07-29T19:56:35.427Z,9.52
2022-07-29T19:59:13.072Z,8.07
2022-07-29T20:01:46.215Z,8.75
2022-07-29T20:04:20.020Z,9.77
2022-07-29T20:06:57.270Z,9.38
2022-07-29T20:09:35.863Z,9.55
2022-07-29T20:12:10.395Z,10.95
2022-07-29T20:14:45.541Z,11.20
2022-07-29T20:17:19.934Z,11.73
2022-07-29T20:19:53.715Z,10.63
2022-07-29T20:22:26.836Z,11.10
2022-07-29T20:25:00.580Z,11.25
2022-07-29T20:27:37.220Z,12.35
2022-07-29T20:30:13.956Z,13.38
2022-07-29T20:32:53.461Z,12.30
2022-07-29T20:35:28.438Z,12.10
2022-07-29T20:38:03.581Z,12.88
2022-07-29T20:40:36.701Z,12.00
2022-07-29T20:43:10.615Z,12.25
2022-07-29T20:45:44.633Z,13.00
2022-07-29T20:48:19.124Z,13.07
2022-07-29T20:50:51.965Z,13.77
2022-07-29T20:53:25.954Z,12.90
2022-07-29T20:56:00.642Z,13.40
2022-07-29T20:58:34.759Z,13.60
2022-07-29T21:01:08.833Z,13.25
2022-07-29T21:03:42.955Z,13.02
2022-07-29T21:06:16.311Z,13.07
2022-07-29T21:08:49.259Z,14.25
2022-07-29T21:11:43.343Z,13.00
2022-07-29T21:14:48.429Z,12.43
2022-07-29T21:17:22.823Z,13.57
2022-07-29T21:19:55.643Z,12.63
2022-07-29T21:22:28.292Z,13.05
2022-07-29T21:25:01.240Z,13.77
2022-07-29T21:27:52.133Z,14.90
2022-07-29T21:30:24.870Z,14.27
2022-07-29T21:32:57.529Z,13.75
2022-07-29T21:36:02.015Z,13.73
2022-07-29T21:38:23.418Z,14.38
2022-07-29T21:40:56.615Z,15.23
2022-07-29T21:43:29.438Z,15.60
2022-07-29T21:46:02.329Z,14.48
2022-07-29T21:48:35.016Z,14.52
2022-07-29T21:51:07.685Z,13.63
2022-07-29T21:53:40.299Z,13.65
2022-07-29T21:56:14.782Z,14.02
2022-07-29T21:58:47.852Z,12.75
2022-07-29T22:01:20.610Z,13.25
2022-07-29T22:03:53.430Z,13.57
2022-07-29T22:06:26.186Z,12.13
2022-07-29T22:08:58.910Z,12.15
2022-07-29T22:11:31.891Z,11.65
2022-07-29T22:14:07.780Z,10.82
2022-07-29T22:16:40.459Z,10.27
2022-07-29T22:19:14.088Z,11.10
2022-07-29T22:21:47.691Z,10.07
2022-07-29T22:24:21.618Z,10.40
2022-07-29T22:26:54.212Z,9.98
2022-07-29T22:29:27.496Z,9.18
2022-07-29T22:32:00.248Z,8.75
2022-07-29T22:34:37.974Z,8.35
2022-07-29T22:37:10.851Z,9.30
2022-07-29T22:39:43.464Z,9.52
2022-07-29T22:42:16.291Z,8.43
2022-07-29T22:44:48.930Z,8.80
2022-07-29T22:47:46.100Z,8.60
2022-07-29T22:50:39.465Z,8.10
2022-07-29T22:53:12.338Z,9.07
2022-07-29T22:55:45.136Z,7.88
2022-07-29T22:58:17.918Z,8.73
2022-07-29T23:00:50.608Z,7.50
2022-07-29T23:03:23.482Z,7.65
2022-07-29T23:05:56.292Z,7.60
2022-07-29T23:08:28.890Z,7.40
2022-07-29T23:11:01.567Z,6.85
2022-07-29T23:13:34.367Z,7.60
2022-07-29T23:16:07.183Z,7.40
2022-07-29T23:18:40.169Z,7.18
2022-07-29T23:21:13.101Z,8.25
2022-07-29T23:23:46.097Z,8.10
2022-07-29T23:26:18.976Z,8.07
2022-07-29T23:28:51.673Z,8.27
2022-07-29T23:31:24.414Z,8.65
2022-07-29T23:34:23.384Z,9.18
2022-07-29T23:36:56.090Z,8.77
2022-07-29T23:39:28.920Z,9.50
2022-07-29T23:42:01.618Z,9.30
2022-07-29T23:44:34.379Z,9.93
2022-07-29T23:47:07.205Z,8.90
2022-07-29T23:49:40.007Z,9.88
2022-07-29T23:52:12.893Z,9.63
2022-07-29T23:54:45.852Z,9.73
2022-07-29T23:57:23.245Z,9.13
2022-07-29T23:59:56.631Z,10.25
